Time;durP1;ratioP1;P1;durP2;ratioP2;P2;SDS_P1;SDS_P2;PMS_P1;PMS_P2;Temp;Humidity;BMP_temperature;BMP_pressure;BME280_temperature;BME280_humidity;BME280_pressure;Samples;Min_cycle;Max_cycle;Signal;HPM_P1;HPM_P2
2022/01/23 00:02:08;;;;;;;5.53;2.50;;;;;;;0.68;89.56;95325.25;4979727;28;20038;-85
2022/01/23 00:04:33;;;;;;;5.40;2.40;;;;;;;1.18;87.06;95317.63;4979937;28;20023;-85
2022/01/23 00:07:03;;;;;;;6.60;2.30;;;;;;;0.96;89.00;95315.03;4963992;28;20037;-84
2022/01/23 00:09:29;;;;;;;5.13;2.22;;;;;;;0.93;90.38;95324.91;4964365;28;20035;-84
2022/01/23 00:11:55;;;;;;;5.10;1.90;;;;;;;0.73;90.23;95329.88;4964102;28;20027;-84
2022/01/23 00:17:18;;;;;;;4.78;2.30;;;;;;;0.55;90.15;95329.28;4979890;28;20089;-85
2022/01/23 00:20:10;;;;;;;4.28;2.08;;;;;;;0.59;92.00;95313.44;4979672;28;20420;-84
2022/01/23 00:22:45;;;;;;;6.22;2.55;;;;;;;0.57;90.48;95321.34;4961644;28;20049;-85
2022/01/23 00:30:42;;;;;;;7.25;3.50;;;;;;;0.62;92.96;95326.78;4979608;28;20487;-84
2022/01/23 00:33:09;;;;;;;6.47;2.80;;;;;;;0.59;95.14;95334.06;4979510;28;20038;-84
2022/01/23 00:35:36;;;;;;;7.32;3.13;;;;;;;0.50;93.75;95333.38;4963321;28;20085;-84
2022/01/23 00:38:04;;;;;;;6.60;3.13;;;;;;;0.27;94.78;95329.09;4962271;28;20026;-84
2022/01/23 00:40:30;;;;;;;6.47;2.88;;;;;;;0.23;99.25;95331.25;4979111;28;20033;-85
2022/01/23 00:42:58;;;;;;;7.32;3.00;;;;;;;0.35;96.86;95326.44;4963310;28;20062;-84
2022/01/23 00:45:33;;;;;;;5.32;2.90;;;;;;;0.26;98.46;95324.94;4963711;28;20050;-85
2022/01/23 00:48:08;;;;;;;8.75;3.40;;;;;;;-0.01;100.00;95325.38;4979198;28;20031;-84
2022/01/23 00:50:39;;;;;;;5.80;3.05;;;;;;;0.06;100.00;95328.03;4979121;28;20564;-84
2022/01/23 00:53:11;;;;;;;6.82;2.63;;;;;;;-0.03;100.00;95336.81;4978906;28;20070;-84
2022/01/23 00:55:38;;;;;;;7.88;3.05;;;;;;;-0.03;100.00;95329.91;4978947;28;20463;-84
2022/01/23 00:58:04;;;;;;;5.45;2.67;;;;;;;-0.04;100.00;95330.88;4963005;28;20034;-84
2022/01/23 01:00:30;;;;;;;8.00;2.50;;;;;;;0.05;100.00;95323.88;4962956;28;20502;-85
2022/01/23 01:02:55;;;;;;;6.82;2.88;;;;;;;0.38;94.37;95323.50;4962796;28;20030;-84
2022/01/23 01:05:21;;;;;;;8.18;3.03;;;;;;;0.38;94.13;95318.34;4978614;28;20491;-84
2022/01/23 01:07:47;;;;;;;8.90;3.17;;;;;;;0.59;90.45;95316.81;4962864;28;20035;-85
2022/01/23 01:10:21;;;;;;;9.77;3.30;;;;;;;0.62;89.60;95318.22;4978698;28;20033;-84
2022/01/23 01:12:49;;;;;;;8.85;3.60;;;;;;;0.44;96.05;95332.31;4963871;28;20137;-85
2022/01/23 01:31:42;;;;;;;9.82;3.70;;;;;;;0.01;100.00;95332.94;4978417;28;20515;-84
2022/01/23 01:34:13;;;;;;;9.57;3.45;;;;;;;0.24;100.00;95332.03;4978147;28;20035;-84
2022/01/23 01:39:09;;;;;;;10.35;4.07;;;;;;;0.19;100.00;95329.22;4978825;28;20432;-84
2022/01/23 01:41:37;;;;;;;9.93;3.20;;;;;;;0.34;99.71;95337.75;4994562;28;20103;-84
2022/01/23 01:44:03;;;;;;;7.65;3.55;;;;;;;0.23;100.00;95341.56;4961943;28;20022;-85
2022/01/23 01:46:29;;;;;;;7.13;3.05;;;;;;;0.01;100.00;95334.72;4961874;28;20037;-85
2022/01/23 01:48:55;;;;;;;8.50;3.85;;;;;;;0.01;100.00;95330.38;4977989;28;20026;-84
2022/01/23 01:51:21;;;;;;;9.90;3.75;;;;;;;-0.05;100.00;95331.06;4962060;28;20034;-84
2022/01/23 01:53:51;;;;;;;11.10;4.10;;;;;;;0.10;100.00;95329.28;4977681;28;20046;-85
2022/01/23 01:56:17;;;;;;;10.10;3.75;;;;;;;0.08;100.00;95325.31;4962624;28;20400;-84
2022/01/23 02:09:38;;;;;;;8.65;3.67;;;;;;;0.10;100.00;95331.88;4977854;28;20106;-84
2022/01/23 02:14:46;;;;;;;7.32;3.22;;;;;;;0.31;96.97;95325.22;4977381;28;20114;-84
2022/01/23 02:55:22;;;;;;;5.03;2.70;;;;;;;0.16;99.72;95301.22;4978403;28;20030;-84
2022/01/23 03:00:16;;;;;;;6.60;2.83;;;;;;;0.33;97.14;95300.03;4977513;28;20053;-84
2022/01/23 03:02:48;;;;;;;5.55;2.65;;;;;;;0.32;95.94;95301.03;4976928;28;20117;-85
2022/01/23 03:05:24;;;;;;;5.68;2.47;;;;;;;0.36;98.88;95302.25;4961275;28;20046;-84
2022/01/23 03:10:39;;;;;;;5.53;2.20;;;;;;;0.10;100.00;95295.78;4977852;28;20443;-84
2022/01/23 03:16:12;;;;;;;4.63;2.03;;;;;;;0.01;100.00;95296.88;4976635;28;20073;-84
2022/01/23 03:27:01;;;;;;;4.32;2.30;;;;;;;0.14;100.00;95288.50;4976650;28;20049;-84
2022/01/23 03:29:39;;;;;;;4.30;1.63;;;;;;;-0.04;100.00;95289.66;4976654;28;20037;-84
2022/01/23 03:34:50;;;;;;;5.43;2.00;;;;;;;0.23;100.00;95291.78;4976442;28;20042;-84
2022/01/23 03:37:15;;;;;;;4.32;1.88;;;;;;;0.59;93.98;95293.63;4960554;28;20446;-85
2022/01/23 03:39:41;;;;;;;3.35;1.55;;;;;;;0.60;97.20;95281.50;4976495;28;20080;-84
2022/01/23 03:42:07;;;;;;;2.75;1.25;;;;;;;0.70;94.50;95284.59;4960475;28;20065;-85
2022/01/23 03:44:36;;;;;;;3.10;1.55;;;;;;;1.16;88.35;95283.47;4977427;28;20053;-84
2022/01/23 03:47:15;;;;;;;3.08;1.40;;;;;;;1.57;81.97;95276.81;4960877;28;20035;-84
2022/01/23 03:49:41;;;;;;;6.75;1.65;;;;;;;1.52;81.60;95272.22;4976426;28;20114;-85
2022/01/23 03:52:10;;;;;;;2.47;1.30;;;;;;;1.40;81.67;95278.88;4960331;28;20419;-85
2022/01/23 03:54:36;;;;;;;3.08;1.75;;;;;;;1.40;80.99;95281.47;4976199;28;20099;-84
2022/01/23 03:57:07;;;;;;;2.67;1.50;;;;;;;1.22;86.79;95284.47;4976461;28;20023;-84
2022/01/23 03:59:34;;;;;;;3.08;1.23;;;;;;;0.82;93.03;95277.97;4976255;28;20037;-85
2022/01/23 04:02:00;;;;;;;5.15;1.67;;;;;;;0.55;96.24;95274.31;4960249;28;20049;-85
2022/01/23 04:07:18;;;;;;;2.50;1.27;;;;;;;0.16;99.23;95271.09;4976282;28;20034;-84
2022/01/23 04:09:44;;;;;;;2.55;1.30;;;;;;;0.12;100.00;95275.78;4960573;28;20034;-85
2022/01/23 04:12:22;;;;;;;3.60;1.33;;;;;;;0.19;100.00;95268.13;4962519;28;20026;-84
2022/01/23 04:14:54;;;;;;;2.40;1.38;;;;;;;0.05;100.00;95269.75;4964852;28;20030;-84
2022/01/23 05:00:14;;;;;;;2.30;1.15;;;;;;;0.23;99.62;95286.63;4998549;28;20038;-84
2022/01/23 05:05:32;;;;;;;2.72;1.05;;;;;;;0.29;99.74;95288.50;4989802;28;20129;-84
2022/01/23 05:07:57;;;;;;;2.53;1.10;;;;;;;0.21;100.00;95298.91;4998009;28;20552;-84
2022/01/23 05:10:23;;;;;;;2.90;1.10;;;;;;;0.18;99.49;95296.69;4998103;28;20105;-84
2022/01/23 05:12:49;;;;;;;3.03;1.13;;;;;;;0.08;100.00;95286.66;4997951;28;20064;-84
2022/01/23 05:15:14;;;;;;;2.28;1.10;;;;;;;0.18;100.00;95291.53;4997837;28;20026;-84
2022/01/23 05:17:39;;;;;;;4.88;1.15;;;;;;;0.47;100.00;95290.69;4982222;28;20026;-84
2022/01/23 05:20:06;;;;;;;1.98;1.02;;;;;;;0.34;100.00;95295.69;4981811;28;20023;-84
2022/01/23 05:22:52;;;;;;;2.97;1.20;;;;;;;0.20;100.00;95292.16;4981246;28;20023;-84
2022/01/23 05:27:44;;;;;;;2.83;1.27;;;;;;;0.64;97.95;95293.84;4997949;28;20034;-84
2022/01/23 05:30:10;;;;;;;2.65;1.25;;;;;;;0.96;95.33;95309.88;4993488;28;20122;-84
2022/01/23 05:32:40;;;;;;;5.22;1.48;;;;;;;0.70;96.55;95311.19;4993159;28;20491;-84
2022/01/23 05:35:07;;;;;;;3.85;1.40;;;;;;;0.38;100.00;95312.41;4982018;28;20037;-84
2022/01/23 05:37:33;;;;;;;3.15;1.42;;;;;;;0.14;100.00;95311.69;4997487;28;20072;-84
2022/01/23 05:39:59;;;;;;;3.08;1.50;;;;;;;0.10;100.00;95316.41;4997463;28;20120;-84
2022/01/23 05:42:28;;;;;;;2.70;1.35;;;;;;;-0.09;100.00;95311.78;4997413;28;20031;-84
2022/01/23 05:44:55;;;;;;;1.95;1.13;;;;;;;-0.13;100.00;95307.97;4997620;28;20033;-84
2022/01/23 05:47:21;;;;;;;5.00;1.52;;;;;;;-0.25;100.00;95305.81;4981619;28;20387;-84
2022/01/23 05:49:49;;;;;;;7.18;1.55;;;;;;;-0.35;100.00;95313.81;4997317;28;20034;-84
2022/01/23 05:52:15;;;;;;;3.17;1.40;;;;;;;-0.36;100.00;95311.38;5013220;28;20030;-84
2022/01/23 05:54:41;;;;;;;3.35;1.65;;;;;;;-0.45;100.00;95314.03;4997123;28;20041;-84
2022/01/23 05:57:09;;;;;;;3.63;1.60;;;;;;;-0.40;100.00;95315.31;4981072;28;20406;-84
2022/01/23 05:59:37;;;;;;;5.22;1.60;;;;;;;-0.35;100.00;95316.38;4981486;28;20081;-84
2022/01/23 06:02:05;;;;;;;2.45;1.30;;;;;;;-0.21;100.00;95319.16;4981307;28;20081;-84
2022/01/23 06:04:31;;;;;;;2.88;1.40;;;;;;;-0.19;100.00;95327.50;5012786;28;20065;-84
2022/01/23 06:06:58;;;;;;;3.65;1.70;;;;;;;-0.20;100.00;95333.63;5013309;28;20452;-84
2022/01/23 06:23:30;;;;;;;3.65;1.48;;;;;;;-0.01;100.00;95345.19;4996204;28;20050;-88
2022/01/23 06:25:57;;;;;;;5.65;1.40;;;;;;;-0.14;100.00;95340.66;4998340;28;20340;-87
2022/01/23 06:28:49;;;;;;;3.65;1.40;;;;;;;0.08;100.00;95345.91;4997459;28;20037;-88
2022/01/23 06:31:15;;;;;;;2.85;1.10;;;;;;;-0.07;100.00;95353.63;4996945;28;20128;-88
2022/01/23 06:33:40;;;;;;;2.35;1.17;;;;;;;0.02;100.00;95350.00;5013521;28;20112;-88
2022/01/23 06:36:06;;;;;;;3.33;1.23;;;;;;;-0.29;100.00;95354.28;4996812;28;20041;-88
2022/01/23 06:38:31;;;;;;;3.50;1.40;;;;;;;-0.47;100.00;95370.03;5013663;28;20034;-87
2022/01/23 06:40:57;;;;;;;2.42;1.23;;;;;;;-0.57;100.00;95377.22;4981014;28;20038;-88
2022/01/23 06:43:22;;;;;;;3.42;1.50;;;;;;;-0.49;100.00;95377.16;4997239;28;20458;-88
2022/01/23 06:45:48;;;;;;;3.72;1.67;;;;;;;-0.36;100.00;95383.50;4997468;28;20065;-87
2022/01/23 06:48:13;;;;;;;2.40;1.33;;;;;;;-0.48;100.00;95377.97;4996955;28;20041;-87
2022/01/23 06:50:41;;;;;;;2.60;1.45;;;;;;;-0.34;100.00;95382.34;4972126;28;20085;-88
2022/01/23 06:53:06;;;;;;;4.85;1.30;;;;;;;-0.09;100.00;95394.22;4978875;28;20041;-88
2022/01/23 06:55:32;;;;;;;2.10;1.10;;;;;;;0.06;100.00;95389.09;4981043;28;20348;-88
2022/01/23 06:58:01;;;;;;;2.90;1.20;;;;;;;0.03;100.00;95392.81;5013247;28;20037;-87
2022/01/23 07:00:27;;;;;;;2.67;1.05;;;;;;;-0.12;100.00;95397.94;4980295;28;20443;-87
2022/01/23 07:02:52;;;;;;;2.28;1.20;;;;;;;-0.15;100.00;95396.50;4981141;28;20068;-88
2022/01/23 07:05:18;;;;;;;1.85;0.93;;;;;;;-0.12;100.00;95394.56;4981196;28;20382;-88
2022/01/23 07:07:46;;;;;;;2.35;1.20;;;;;;;0.11;100.00;95402.25;4996616;28;20173;-87
2022/01/23 07:10:11;;;;;;;2.58;1.17;;;;;;;0.14;100.00;95407.06;4996443;28;20026;-87
2022/01/23 07:12:39;;;;;;;2.53;1.25;;;;;;;0.05;100.00;95420.97;4996635;28;20368;-87
2022/01/23 07:15:05;;;;;;;2.65;1.20;;;;;;;0.10;100.00;95416.13;4996546;28;20030;-87
2022/01/23 07:17:31;;;;;;;3.28;1.40;;;;;;;0.28;100.00;95424.31;4980581;28;20031;-87
2022/01/23 07:19:56;;;;;;;3.20;1.33;;;;;;;0.26;100.00;95425.47;5012603;28;20037;-87
2022/01/23 07:22:21;;;;;;;1.85;1.25;;;;;;;0.34;100.00;95433.13;4995946;28;20041;-87
2022/01/23 07:24:47;;;;;;;2.67;1.30;;;;;;;0.47;100.00;95432.50;4980364;28;20475;-87
2022/01/23 07:27:19;;;;;;;4.10;1.73;;;;;;;0.66;100.00;95431.19;5012772;28;20419;-87
2022/01/23 07:29:46;;;;;;;2.85;1.30;;;;;;;0.84;100.00;95435.16;4996538;28;20061;-87
2022/01/23 07:32:12;;;;;;;3.13;1.30;;;;;;;0.82;100.00;95440.53;4996013;28;20031;-87
2022/01/23 07:34:38;;;;;;;2.80;1.20;;;;;;;0.90;100.00;95441.38;4996500;28;20428;-87
2022/01/23 07:37:04;;;;;;;4.07;1.15;;;;;;;0.98;100.00;95446.47;4996261;28;20406;-87
2022/01/23 07:39:29;;;;;;;2.45;1.40;;;;;;;0.96;100.00;95454.38;4996390;28;20035;-87
2022/01/23 07:41:54;;;;;;;2.70;1.38;;;;;;;1.02;100.00;95460.59;4979733;28;20328;-87
2022/01/23 07:44:20;;;;;;;3.15;1.27;;;;;;;1.05;100.00;95459.44;4980334;28;20486;-87
2022/01/23 07:46:45;;;;;;;3.47;1.30;;;;;;;0.96;100.00;95464.69;4998301;28;20041;-87
2022/01/23 07:49:11;;;;;;;3.20;1.42;;;;;;;0.86;100.00;95469.31;4984189;28;20416;-87
2022/01/23 07:51:38;;;;;;;8.95;1.50;;;;;;;0.81;100.00;95467.31;4981224;28;20034;-87
2022/01/23 07:54:03;;;;;;;3.17;1.73;;;;;;;0.79;100.00;95463.28;4984058;28;20062;-87
2022/01/23 07:56:29;;;;;;;5.20;1.30;;;;;;;0.87;100.00;95464.97;5000123;28;20088;-88
2022/01/23 07:58:54;;;;;;;3.25;1.63;;;;;;;1.02;100.00;95470.16;5000292;28;20062;-87
2022/01/23 08:01:20;;;;;;;3.35;1.58;;;;;;;1.15;100.00;95467.72;4999477;28;20416;-87
2022/01/23 08:03:45;;;;;;;4.32;1.35;;;;;;;1.28;95.83;95461.91;5001056;28;20056;-87
2022/01/23 08:06:12;;;;;;;2.90;1.60;;;;;;;1.43;95.93;95461.06;4984141;28;20121;-87
2022/01/23 08:08:37;;;;;;;4.82;1.60;;;;;;;1.58;97.98;95453.25;4999878;28;20030;-87
2022/01/23 08:11:03;;;;;;;4.10;1.73;;;;;;;1.62;99.74;95460.47;4999725;28;20038;-86
2022/01/23 08:13:31;;;;;;;3.25;1.45;;;;;;;1.96;91.58;95453.84;5000527;28;20041;-87
2022/01/23 08:15:56;;;;;;;7.40;1.80;;;;;;;2.27;86.81;95451.88;4999726;28;20080;-87
2022/01/23 08:18:34;;;;;;;5.88;2.03;;;;;;;2.61;81.90;95454.69;4983730;28;20069;-87
2022/01/23 08:20:59;;;;;;;7.05;2.70;;;;;;;2.89;81.00;95453.84;4999276;28;20026;-88
2022/01/23 08:23:25;;;;;;;6.47;2.20;;;;;;;3.14;82.89;95466.31;4978542;28;20026;-87
2022/01/23 08:25:51;;;;;;;4.90;2.00;;;;;;;2.90;95.33;95458.84;4964238;28;20437;-87
2022/01/23 08:28:16;;;;;;;4.75;2.20;;;;;;;3.01;96.92;95454.91;4963462;28;20033;-88
2022/01/23 08:30:42;;;;;;;15.98;8.13;;;;;;;3.10;92.76;95455.53;4963761;28;20027;-87
2022/01/23 08:33:07;;;;;;;25.50;13.95;;;;;;;3.29;100.00;95453.22;4979863;28;20350;-87
2022/01/23 08:35:32;;;;;;;18.25;10.98;;;;;;;3.49;95.60;95456.69;4963847;28;20063;-87
2022/01/23 08:37:59;;;;;;;9.63;5.32;;;;;;;3.49;97.89;95464.47;4979412;28;20329;-88
2022/01/23 08:43:08;;;;;;;;;;;;;;;3.71;93.24;95460.91;4980222;28;20483;-87
2022/01/23 08:45:34;;;;;;;29.35;12.77;;;;;;;3.65;93.53;95473.66;4963510;28;19910;-87
2022/01/23 08:47:59;;;;;;;12.52;5.28;;;;;;;3.71;88.02;95464.28;4989265;28;20033;-87
2022/01/23 08:50:25;;;;;;;39.45;13.60;;;;;;;3.68;87.71;95467.28;4982734;28;20052;-88
2022/01/23 08:52:51;;;;;;;77.95;30.55;;;;;;;3.62;88.17;95468.09;4999535;28;20332;-88
2022/01/23 08:55:17;;;;;;;24.30;9.52;;;;;;;4.03;85.74;95468.94;4983298;28;20037;-88
2022/01/23 08:57:43;;;;;;;68.70;27.95;;;;;;;4.08;84.50;95469.94;4978615;28;20042;-88
2022/01/23 09:00:09;;;;;;;21.40;8.73;;;;;;;4.31;81.67;95460.97;4979207;28;20065;-88
2022/01/23 09:02:34;;;;;;;94.47;32.75;;;;;;;4.47;80.91;95461.56;4995540;28;20348;-87
2022/01/23 09:05:00;;;;;;;193.70;60.15;;;;;;;4.12;79.63;95469.53;4994843;28;20037;-88
2022/01/23 09:07:33;;;;;;;334.67;110.28;;;;;;;3.89;84.09;95470.72;5014781;28;20031;-90
2022/01/23 09:10:02;;;;;;;200.48;65.30;;;;;;;4.20;86.31;95471.94;4983395;28;20420;-90
2022/01/23 09:13:03;;;;;;;155.02;51.35;;;;;;;4.23;85.98;95474.94;4998790;28;20030;-90
2022/01/23 09:15:16;;;;;;;48.30;17.38;;;;;;;4.33;81.84;95476.34;5009667;28;20164;-90
2022/01/23 09:17:42;;;;;;;118.65;33.08;;;;;;;4.38;80.14;95472.13;4981242;28;20050;-87
2022/01/23 09:20:08;;;;;;;104.57;27.73;;;;;;;4.23;80.35;95474.13;4995283;28;20081;-89
2022/01/23 09:22:33;;;;;;;71.28;20.30;;;;;;;4.26;78.08;95476.34;4995048;28;20031;-87
2022/01/23 09:25:00;;;;;;;82.28;22.80;;;;;;;4.31;78.98;95473.94;4995207;28;20061;-87
2022/01/23 09:27:26;;;;;;;55.75;17.35;;;;;;;4.62;77.86;95471.72;4995232;28;20031;-86
2022/01/23 09:29:54;;;;;;;20.45;6.88;;;;;;;4.88;75.44;95472.66;4978955;28;20023;-87
2022/01/23 09:32:21;;;;;;;32.88;10.40;;;;;;;4.86;75.35;95475.47;4978893;28;20031;-88
2022/01/23 09:34:48;;;;;;;12.70;5.15;;;;;;;4.85;75.02;95484.25;4994937;28;20026;-87
2022/01/23 09:37:15;;;;;;;4.93;2.33;;;;;;;4.84;74.80;95480.06;4995596;28;20030;-87
2022/01/23 09:40:22;;;;;;;5.47;2.28;;;;;;;4.71;79.99;95487.88;4998117;28;20030;-88
2022/01/23 09:42:47;;;;;;;35.88;11.65;;;;;;;4.69;76.07;95490.69;4998136;28;20073;-88
2022/01/23 09:45:14;;;;;;;30.52;10.13;;;;;;;4.58;74.80;95494.69;4997962;28;20375;-88
2022/01/23 09:47:43;;;;;;;17.70;6.30;;;;;;;4.56;75.29;95496.69;4998553;28;20030;-88
2022/01/23 09:50:11;;;;;;;8.63;2.88;;;;;;;4.57;73.42;95485.28;4997859;28;20126;-88
2022/01/23 09:52:39;;;;;;;188.95;83.07;;;;;;;4.67;69.19;95483.09;5013785;28;20072;-88
2022/01/23 09:55:11;;;;;;;68.32;33.28;;;;;;;4.80;68.93;95484.84;4997830;28;20093;-88
2022/01/23 09:57:47;;;;;;;7.18;3.58;;;;;;;5.06;68.16;95490.22;4982040;28;20141;-89
2022/01/23 10:00:28;;;;;;;5.28;2.33;;;;;;;5.21;72.71;95485.56;4997508;28;20331;-88
2022/01/23 10:03:04;;;;;;;5.20;2.10;;;;;;;5.21;74.47;95495.97;4997834;28;20030;-88
2022/01/23 10:05:30;;;;;;;4.18;2.10;;;;;;;5.29;72.93;95497.53;4998091;28;20033;-89
2022/01/23 10:08:06;;;;;;;;;;;;;;;;;;;;;
2022/01/23 10:10:39;;;;;;;5.40;2.53;;;;;;;5.50;77.54;95499.06;4996944;28;20044;-88
2022/01/23 10:13:10;;;;;;;2.87;1.37;;;;;;;5.45;72.52;95498.06;4982476;28;20025;-88
2022/01/23 10:15:36;;;;;;;3.67;1.55;;;;;;;5.39;72.40;95499.69;4981940;28;20284;-88
2022/01/23 10:18:02;;;;;;;4.40;1.30;;;;;;;5.34;74.17;95502.13;4981485;28;20023;-89
2022/01/23 10:20:28;;;;;;;2.30;1.42;;;;;;;5.35;74.65;95504.50;4980876;28;20026;-88
2022/01/23 10:22:55;;;;;;;3.92;1.80;;;;;;;5.51;73.13;95502.44;4981444;28;20036;-88
2022/01/23 10:25:28;;;;;;;4.50;1.65;;;;;;;5.84;75.63;95506.69;4997794;28;20050;-89
2022/01/23 10:28:06;;;;;;;4.07;2.15;;;;;;;5.56;72.66;95501.81;4981562;28;20342;-88
2022/01/23 10:30:33;;;;;;;2.65;1.40;;;;;;;5.52;77.80;95499.63;4981269;28;20432;-88
2022/01/23 10:33:08;;;;;;;3.95;2.10;;;;;;;5.56;85.70;95501.81;4997359;28;20486;-88
2022/01/23 10:35:37;;;;;;;7.47;2.88;;;;;;;5.59;81.84;95496.19;4981950;28;20041;-87
2022/01/23 10:38:10;;;;;;;7.30;3.33;;;;;;;5.62;85.27;95501.00;4981222;28;20034;-88
2022/01/23 10:40:38;;;;;;;6.53;3.00;;;;;;;5.79;81.04;95491.72;4981349;28;20030;-88
2022/01/23 10:48:54;;;;;;;15.88;5.60;;;;;;;5.66;84.81;95486.56;4997269;28;20036;-89
2022/01/23 10:51:25;;;;;;;16.80;5.72;;;;;;;5.65;86.83;95487.59;4997835;28;20033;-89
2022/01/23 10:54:19;;;;;;;15.32;5.82;;;;;;;5.87;83.25;95492.47;4997139;28;20034;-89
2022/01/23 10:56:59;;;;;;;;;;;;;;;5.93;77.33;95484.63;4997383;28;20049;-89
2022/01/23 10:59:29;;;;;;;12.77;4.72;;;;;;;5.94;78.16;95482.81;4990472;28;19909;-88
2022/01/23 11:02:03;;;;;;;13.50;5.15;;;;;;;5.84;73.75;95482.47;4992877;28;20447;-89
2022/01/23 11:04:29;;;;;;;20.38;9.35;;;;;;;5.92;77.98;95484.84;4977201;28;20078;-88
2022/01/23 11:07:00;;;;;;;176.77;86.15;;;;;;;6.28;74.42;95480.81;4961458;28;20086;-88
2022/01/23 11:09:31;;;;;;;160.80;66.70;;;;;;;6.19;71.90;95475.06;4977469;28;20050;-88
2022/01/23 11:12:13;;;;;;;247.52;95.88;;;;;;;6.49;71.19;95471.81;4960562;28;20023;-89
2022/01/23 11:17:24;;;;;;;188.02;69.38;;;;;;;6.60;69.12;95467.75;4993464;28;20037;-89
2022/01/23 11:19:54;;;;;;;77.13;29.85;;;;;;;6.81;68.87;95465.72;4991253;28;20022;-89
2022/01/23 11:22:29;;;;;;;28.00;11.73;;;;;;;6.86;64.42;95460.66;4984623;28;20428;-89
2022/01/23 11:25:09;;;;;;;24.25;11.20;;;;;;;6.78;68.72;95466.19;5003314;28;20494;-89
2022/01/23 11:27:42;;;;;;;21.65;10.48;;;;;;;6.78;69.32;95451.31;5003859;28;20121;-90
2022/01/23 11:30:11;;;;;;;36.60;17.73;;;;;;;6.93;70.78;95452.78;5002914;28;20022;-89
2022/01/23 11:32:40;;;;;;;13.98;6.72;;;;;;;6.96;70.05;95454.97;5002996;28;20072;-89
2022/01/23 11:35:12;;;;;;;36.45;17.48;;;;;;;6.90;70.17;95451.41;5002788;28;20076;-89
2022/01/23 11:37:45;;;;;;;69.97;30.77;;;;;;;6.90;72.34;95451.41;5019489;28;20109;-90
2022/01/23 11:40:30;;;;;;;60.80;25.27;;;;;;;7.04;75.08;95459.88;4987237;28;20269;-90
2022/01/23 11:50:43;;;;;;;10.45;4.90;;;;;;;7.02;66.76;95474.13;5003283;28;20109;-89
2022/01/23 11:53:44;;;;;;;17.17;9.18;;;;;;;6.91;72.42;95467.84;5003226;28;20037;-89
2022/01/23 11:54:06;;;;;;;22.65;11.93;;;;;;;7.02;75.87;95472.34;5002898;28;20042;-89
2022/01/23 11:56:40;;;;;;;15.30;6.85;;;;;;;7.03;74.00;95476.53;5003130;28;20308;-89
2022/01/23 11:59:18;;;;;;;14.18;6.32;;;;;;;6.87;72.62;95467.47;4986966;28;20026;-89
2022/01/23 12:01:46;;;;;;;25.85;11.35;;;;;;;6.89;72.00;95464.66;4987324;28;20030;-89
2022/01/23 12:04:20;;;;;;;18.45;6.13;;;;;;;6.96;65.39;95467.19;4986859;28;20419;-89
2022/01/23 12:07:11;;;;;;;14.05;5.70;;;;;;;6.99;59.84;95464.97;4987102;28;20121;-88
2022/01/23 12:09:42;;;;;;;12.98;5.38;;;;;;;6.95;62.44;95463.00;5003647;28;20023;-89
2022/01/23 12:17:16;;;;;;;20.65;9.25;;;;;;;6.55;63.61;95466.78;5002968;28;20339;-89
2022/01/23 12:20:02;;;;;;;21.92;8.52;;;;;;;6.60;64.07;95454.72;4986321;28;20387;-89
2022/01/23 12:22:36;;;;;;;23.45;9.85;;;;;;;6.70;65.13;95458.63;4986446;28;20026;-89
2022/01/23 12:25:17;;;;;;;17.77;8.10;;;;;;;6.86;65.62;95460.66;5002556;28;20058;-89
2022/01/23 12:27:43;;;;;;;30.73;11.20;;;;;;;7.05;63.29;95456.25;5002343;28;20450;-89
2022/01/23 12:30:14;;;;;;;20.35;8.75;;;;;;;6.95;64.20;95460.38;5002631;28;20026;-89
2022/01/23 12:32:40;;;;;;;25.88;11.05;;;;;;;7.11;68.51;95456.41;5001932;28;20026;-89
2022/01/23 12:35:08;;;;;;;28.08;10.75;;;;;;;7.14;66.10;95454.16;4983690;28;20026;-89
2022/01/23 12:38:00;;;;;;;25.85;9.30;;;;;;;7.21;63.38;95454.88;5015864;28;20026;-89
2022/01/23 12:40:37;;;;;;;23.05;10.02;;;;;;;7.22;66.56;95453.88;4997667;28;20070;-89
2022/01/23 12:43:15;;;;;;;23.55;10.45;;;;;;;7.25;66.87;95452.66;4983755;28;20049;-89
2022/01/23 12:45:57;;;;;;;24.48;9.85;;;;;;;7.37;66.99;95463.13;4999375;28;20458;-89
2022/01/23 12:48:25;;;;;;;27.38;11.23;;;;;;;7.48;66.59;95461.56;4983639;28;20026;-90
2022/01/23 12:51:10;;;;;;;23.52;10.45;;;;;;;7.67;67.28;95461.53;4998993;28;20026;-89
2022/01/23 12:53:57;;;;;;;29.30;11.18;;;;;;;7.62;66.87;95460.38;5000297;28;20041;-89
2022/01/23 12:56:33;;;;;;;28.40;11.40;;;;;;;7.95;69.31;95449.72;4991925;28;20131;-89
2022/01/23 12:59:11;;;;;;;26.40;11.23;;;;;;;7.60;64.52;95449.38;4999101;28;20077;-90
2022/01/23 13:01:41;;;;;;;27.88;11.23;;;;;;;7.70;65.81;95450.69;4983947;28;20026;-89
2022/01/23 13:04:08;;;;;;;31.42;12.75;;;;;;;7.29;62.29;95447.78;4981156;28;20023;-89
2022/01/23 13:06:59;;;;;;;28.13;12.02;;;;;;;7.75;69.90;95456.81;4983097;28;20030;-89
2022/01/23 13:12:10;;;;;;;33.55;13.68;;;;;;;7.76;64.82;95434.13;4998572;28;20479;-89
2022/01/23 13:18:07;;;;;;;29.85;12.23;;;;;;;7.62;64.05;95425.69;5010004;28;20037;-89
2022/01/23 13:32:51;;;;;;;45.20;18.85;;;;;;;7.56;65.82;95424.78;4987231;28;20070;-87
2022/01/23 13:35:30;;;;;;;48.50;20.43;;;;;;;7.55;68.22;95427.59;4982481;28;20117;-88
2022/01/23 13:37:58;;;;;;;75.07;34.15;;;;;;;7.70;67.41;95421.97;4998787;28;20034;-87
2022/01/23 13:40:35;;;;;;;52.25;23.98;;;;;;;7.83;68.41;95437.44;4997917;28;20026;-88
2022/01/23 14:00:14;;;;;;;106.00;40.30;;;;;;;7.81;70.15;95425.63;4998829;28;20072;-89
2022/01/23 14:02:53;;;;;;;56.75;22.20;;;;;;;7.84;71.62;95423.38;4992442;28;20038;-88
2022/01/23 14:05:32;;;;;;;;;;;;;;;;;;;;;
2022/01/23 14:08:12;;;;;;;;;;;;;;;;;;;;;
2022/01/23 14:10:39;;;;;;;126.15;46.10;;;;;;;7.87;73.44;95427.34;4997292;28;20028;-89
2022/01/23 14:13:19;;;;;;;105.07;37.67;;;;;;;7.83;72.77;95413.16;4965669;28;20033;-89
2022/01/23 14:15:59;;;;;;;;;;;;;;;;;;;;;
2022/01/23 14:18:32;;;;;;;60.15;25.45;;;;;;;7.51;75.64;95411.59;4978902;28;20033;-89
2022/01/23 14:21:09;;;;;;;49.38;20.90;;;;;;;7.57;77.07;95412.50;4962740;28;20037;-88
2022/01/23 14:24:01;;;;;;;44.63;19.88;;;;;;;7.58;72.10;95399.25;4979015;28;20034;-89
2022/01/23 14:26:35;;;;;;;;;;;;;;;;;;;;;
2022/01/23 14:29:06;;;;;;;56.28;20.48;;;;;;;7.69;77.17;95408.13;4997384;28;20041;-88
2022/01/23 14:31:39;;;;;;;50.25;20.40;;;;;;;7.67;76.79;95396.31;4997471;28;20018;-89
2022/01/23 14:34:23;;;;;;;57.10;21.75;;;;;;;7.56;79.37;95405.72;4982680;28;20439;-88
2022/01/23 14:36:55;;;;;;;48.25;20.77;;;;;;;7.57;78.63;95397.69;4997440;28;20030;-88
2022/01/23 14:40:14;;;;;;;48.50;19.63;;;;;;;7.45;76.56;95399.44;4990739;28;20022;-89
2022/01/23 14:42:40;;;;;;;50.67;19.95;;;;;;;7.48;74.44;95394.59;4977611;28;20324;-89
2022/01/23 14:45:08;;;;;;;50.67;20.80;;;;;;;7.39;75.03;95393.31;4977942;28;20019;-89
2022/01/23 14:47:36;;;;;;;47.92;20.13;;;;;;;6.73;81.68;95385.25;4961967;28;20444;-89
2022/01/23 14:50:10;;;;;;;45.85;19.80;;;;;;;6.86;81.89;95386.94;4977533;28;20038;-92
2022/01/23 14:52:36;;;;;;;55.55;21.85;;;;;;;6.17;95.63;95387.81;4962321;28;20105;-89
2022/01/23 14:55:02;;;;;;;59.72;22.38;;;;;;;5.92;97.61;95380.78;4979005;28;20065;-89
2022/01/23 14:57:31;;;;;;;53.50;21.73;;;;;;;5.63;99.05;95372.59;4980553;28;20022;-88
2022/01/23 14:59:58;;;;;;;55.67;23.23;;;;;;;5.54;100.00;95379.06;4980755;28;20089;-88
2022/01/23 15:02:24;;;;;;;55.88;22.67;;;;;;;5.20;100.00;95376.66;4994625;28;20037;-88
2022/01/23 15:04:50;;;;;;;57.88;22.50;;;;;;;5.08;100.00;95382.47;4996953;28;20439;-89
2022/01/23 15:07:17;;;;;;;58.28;22.75;;;;;;;5.08;100.00;95379.88;4980605;28;20034;-87
2022/01/23 15:09:46;;;;;;;57.92;23.42;;;;;;;4.94;100.00;95380.94;4996774;28;20038;-88
2022/01/23 15:12:14;;;;;;;65.97;24.42;;;;;;;5.17;100.00;95377.06;4980245;28;20426;-87
2022/01/23 15:14:43;;;;;;;60.55;24.10;;;;;;;4.86;100.00;95374.19;4996247;28;20351;-87
2022/01/23 15:17:09;;;;;;;66.50;24.77;;;;;;;4.63;100.00;95377.25;5012627;28;20113;-87
2022/01/23 15:19:35;;;;;;;74.43;28.60;;;;;;;4.56;100.00;95368.72;4980494;28;20066;-87
2022/01/23 15:22:03;;;;;;;97.60;33.88;;;;;;;4.61;100.00;95377.50;4996048;28;20062;-87
2022/01/23 15:24:29;;;;;;;84.97;30.33;;;;;;;4.39;100.00;95375.13;5012827;28;20030;-87
2022/01/23 15:27:07;;;;;;;79.82;28.13;;;;;;;4.17;100.00;95371.97;4996361;28;20428;-88
2022/01/23 15:29:32;;;;;;;59.53;23.98;;;;;;;4.07;100.00;95369.78;4996676;28;20037;-87
2022/01/23 15:31:58;;;;;;;50.25;21.20;;;;;;;4.20;100.00;95375.97;4980202;28;20030;-87
2022/01/23 15:34:24;;;;;;;48.58;20.08;;;;;;;4.27;100.00;95374.16;4980352;28;20034;-87